Time;durP1;ratioP1;P1;durP2;ratioP2;P2;SDS_P1;SDS_P2;PMS_P1;PMS_P2;Temp;Humidity;BMP_temperature;BMP_pressure;BME280_temperature;BME280_humidity;BME280_pressure;Samples;Min_cycle;Max_cycle;Signal;HPM_P1;HPM_P2
2022/04/07 00:02:08;;;;;;;33.95;18.88;;;5.50;99.90;;;;;;5115854;28;20031;-74
2022/04/07 00:04:34;;;;;;;31.50;18.52;;;5.50;99.90;;;;;;5116025;28;20024;-72
2022/04/07 00:06:59;;;;;;;30.85;18.58;;;5.40;99.90;;;;;;5115921;28;20031;-73
2022/04/07 00:09:25;;;;;;;41.63;22.65;;;5.40;99.90;;;;;;5115838;28;20039;-73
2022/04/07 00:11:51;;;;;;;40.75;22.83;;;5.40;99.90;;;;;;5115828;28;20036;-73
2022/04/07 00:14:16;;;;;;;39.03;19.50;;;5.40;99.90;;;;;;5115957;28;20016;-73
2022/04/07 00:16:42;;;;;;;36.47;19.73;;;5.30;99.90;;;;;;5115775;28;20023;-72
2022/04/07 00:19:09;;;;;;;29.30;17.45;;;5.30;99.90;;;;;;5115850;28;20044;-71
2022/04/07 00:21:40;;;;;;;31.35;18.27;;;5.30;99.90;;;;;;5115702;28;20081;-71
2022/04/07 00:24:07;;;;;;;33.72;21.08;;;5.30;99.90;;;;;;5115776;28;20016;-73
2022/04/07 00:26:35;;;;;;;35.15;21.10;;;5.20;99.90;;;;;;5115593;28;20046;-73
2022/04/07 00:29:01;;;;;;;35.22;19.98;;;5.20;99.90;;;;;;5115430;28;20071;-72
2022/04/07 00:31:26;;;;;;;44.75;24.08;;;5.20;99.90;;;;;;5113960;28;20523;-73
2022/04/07 00:33:52;;;;;;;74.38;44.63;;;5.10;99.90;;;;;;5115494;28;20100;-73
2022/04/07 00:36:17;;;;;;;47.53;24.58;;;5.10;99.90;;;;;;5115410;28;20103;-71
2022/04/07 00:38:44;;;;;;;37.42;22.90;;;5.10;99.90;;;;;;5115377;28;20023;-72
2022/04/07 00:41:10;;;;;;;33.60;21.35;;;5.10;99.90;;;;;;5115205;28;20020;-71
2022/04/07 00:43:37;;;;;;;34.72;21.38;;;5.10;99.90;;;;;;5113773;28;20016;-72
2022/04/07 00:46:04;;;;;;;33.22;20.00;;;5.10;99.90;;;;;;5114946;28;20027;-74
2022/04/07 00:48:30;;;;;;;30.63;17.83;;;5.10;99.90;;;;;;5115030;28;20023;-74
2022/04/07 00:50:57;;;;;;;31.48;19.45;;;5.20;99.90;;;;;;5115081;28;20020;-73
2022/04/07 00:53:23;;;;;;;36.28;21.80;;;5.20;99.90;;;;;;5113844;28;20008;-73
2022/04/07 00:55:53;;;;;;;31.13;20.17;;;5.20;99.90;;;;;;5113609;28;20035;-71
2022/04/07 00:58:19;;;;;;;32.20;19.10;;;5.20;99.90;;;;;;5113508;28;20026;-73
2022/04/07 01:00:45;;;;;;;29.58;19.90;;;5.20;99.90;;;;;;5114718;28;20051;-71
2022/04/07 01:03:11;;;;;;;33.60;18.55;;;5.30;99.90;;;;;;5113651;28;20028;-73
2022/04/07 01:05:38;;;;;;;30.08;19.88;;;5.30;99.90;;;;;;5113304;28;20020;-71
2022/04/07 01:08:06;;;;;;;31.58;19.80;;;5.30;99.90;;;;;;5113530;28;20107;-71
2022/04/07 01:10:32;;;;;;;32.95;21.83;;;5.30;99.90;;;;;;5113353;28;20034;-73
2022/04/07 01:12:58;;;;;;;27.95;18.90;;;5.40;99.90;;;;;;5113319;28;20030;-73
2022/04/07 01:15:23;;;;;;;31.23;19.52;;;5.40;99.90;;;;;;5114119;28;20016;-73
2022/04/07 01:17:49;;;;;;;34.22;23.33;;;5.40;99.90;;;;;;5114574;28;20027;-71
2022/04/07 01:20:15;;;;;;;29.70;20.17;;;5.40;99.90;;;;;;5114561;28;20024;-73
2022/04/07 01:22:44;;;;;;;34.78;21.13;;;5.40;99.90;;;;;;5113138;28;20049;-73
2022/04/07 01:25:10;;;;;;;31.10;18.65;;;5.40;99.90;;;;;;5113118;28;20055;-71
2022/04/07 01:27:35;;;;;;;39.25;24.00;;;5.30;99.90;;;;;;5113114;28;20074;-73
2022/04/07 01:30:07;;;;;;;35.00;21.00;;;5.40;99.90;;;;;;5112932;28;20084;-73
2022/04/07 01:32:44;;;;;;;38.67;22.27;;;5.30;99.90;;;;;;5114060;28;20512;-73
2022/04/07 01:35:11;;;;;;;37.88;21.60;;;5.40;99.90;;;;;;5114219;28;20257;-73
2022/04/07 01:37:38;;;;;;;37.28;22.98;;;5.40;99.90;;;;;;5114314;28;20023;-73
2022/04/07 01:40:06;;;;;;;38.72;21.60;;;5.40;99.90;;;;;;5112962;28;20011;-74
2022/04/07 01:42:33;;;;;;;43.72;24.48;;;5.30;99.90;;;;;;5114213;28;20381;-75
2022/04/07 01:45:03;;;;;;;59.05;30.13;;;5.30;99.90;;;;;;5112848;28;20111;-73
2022/04/07 01:47:30;;;;;;;49.15;24.85;;;5.20;99.90;;;;;;5114022;28;20058;-75
2022/04/07 01:50:02;;;;;;;43.50;25.35;;;5.20;99.90;;;;;;5114033;28;20472;-75
2022/04/07 01:52:29;;;;;;;44.78;23.35;;;5.20;99.90;;;;;;5114095;28;20027;-75
2022/04/07 01:54:57;;;;;;;37.25;21.33;;;5.10;99.90;;;;;;5113963;28;20023;-72
2022/04/07 01:57:23;;;;;;;31.50;19.33;;;5.10;99.90;;;;;;5113995;28;20020;-72
2022/04/07 01:59:51;;;;;;;32.90;20.35;;;5.00;99.90;;;;;;5113992;28;20043;-70
2022/04/07 02:02:17;;;;;;;31.80;19.20;;;5.00;99.90;;;;;;5114000;28;20064;-71
2022/04/07 02:04:56;;;;;;;30.48;17.40;;;4.90;99.90;;;;;;5113925;28;20050;-70
2022/04/07 02:07:22;;;;;;;35.45;20.75;;;4.90;99.90;;;;;;5112558;28;20011;-72
2022/04/07 02:09:48;;;;;;;34.92;21.67;;;4.90;99.90;;;;;;5112372;28;20062;-72
2022/04/07 02:12:14;;;;;;;43.70;26.95;;;4.80;99.90;;;;;;5113772;28;20085;-71
2022/04/07 02:14:40;;;;;;;49.88;28.50;;;4.90;99.90;;;;;;5113689;28;20362;-71
2022/04/07 02:17:06;;;;;;;51.58;29.75;;;4.80;99.90;;;;;;5112477;28;20027;-73
2022/04/07 02:19:32;;;;;;;57.55;31.27;;;4.80;99.90;;;;;;5112347;28;20028;-73
2022/04/07 02:21:58;;;;;;;64.45;35.33;;;4.80;99.90;;;;;;5113652;28;20046;-70
2022/04/07 02:24:23;;;;;;;54.10;31.50;;;4.90;99.90;;;;;;5112376;28;20016;-71
2022/04/07 02:26:49;;;;;;;53.42;30.25;;;4.90;99.90;;;;;;5115445;28;20044;-70
2022/04/07 02:29:14;;;;;;;55.72;31.52;;;4.90;99.90;;;;;;5117795;28;20039;-70
2022/04/07 02:31:40;;;;;;;56.53;30.83;;;4.90;99.90;;;;;;5116219;28;20038;-70
2022/04/07 02:34:06;;;;;;;52.63;30.65;;;5.00;99.90;;;;;;5117710;28;20024;-73
2022/04/07 02:36:32;;;;;;;56.83;30.90;;;5.00;99.90;;;;;;5116381;28;20028;-72
2022/04/07 02:38:57;;;;;;;58.25;30.98;;;5.00;99.90;;;;;;5117667;28;20503;-70
2022/04/07 02:41:24;;;;;;;50.17;29.58;;;5.00;99.90;;;;;;5116301;28;20020;-70
2022/04/07 02:43:50;;;;;;;64.60;35.47;;;5.10;99.90;;;;;;5117490;28;20027;-71
2022/04/07 02:46:15;;;;;;;53.13;32.10;;;5.10;99.90;;;;;;5117563;28;20094;-73
2022/04/07 02:48:41;;;;;;;54.00;30.58;;;5.10;99.90;;;;;;5117370;28;20135;-71
2022/04/07 02:51:07;;;;;;;53.53;32.03;;;5.10;99.90;;;;;;5116038;28;20024;-73
2022/04/07 02:53:32;;;;;;;54.33;28.95;;;5.10;99.90;;;;;;5117474;28;20099;-73
2022/04/07 02:55:58;;;;;;;48.90;29.02;;;5.10;99.90;;;;;;5117288;28;20038;-70
2022/04/07 02:58:23;;;;;;;52.53;31.42;;;5.10;99.90;;;;;;5117447;28;20476;-72
2022/04/07 03:00:49;;;;;;;55.45;32.40;;;5.10;99.90;;;;;;5117216;28;20023;-73
2022/04/07 03:03:14;;;;;;;52.78;29.55;;;5.00;99.90;;;;;;5117328;28;20117;-70
2022/04/07 03:05:40;;;;;;;43.75;27.27;;;5.00;99.90;;;;;;5117079;28;20027;-73
2022/04/07 03:08:06;;;;;;;46.53;27.50;;;5.00;99.90;;;;;;5115829;28;20481;-70
2022/04/07 03:10:31;;;;;;;40.75;22.70;;;5.00;99.90;;;;;;5115762;28;20039;-71
2022/04/07 03:12:57;;;;;;;44.33;23.13;;;5.00;99.90;;;;;;5117053;28;20495;-72
2022/04/07 03:15:23;;;;;;;48.47;23.10;;;5.10;99.90;;;;;;5116888;28;20024;-72
2022/04/07 03:17:48;;;;;;;51.25;25.13;;;5.00;99.90;;;;;;5116877;27;20381;-70
2022/04/07 03:20:14;;;;;;;48.85;25.73;;;5.00;99.90;;;;;;5116963;28;20024;-70
2022/04/07 03:22:39;;;;;;;40.78;23.30;;;5.00;99.90;;;;;;5116801;28;20015;-72
2022/04/07 03:25:05;;;;;;;49.13;25.92;;;5.00;99.90;;;;;;5116537;28;20084;-70
2022/04/07 03:27:31;;;;;;;48.20;25.50;;;5.00;99.90;;;;;;5116778;27;20028;-70
2022/04/07 03:29:56;;;;;;;39.50;22.58;;;4.90;99.90;;;;;;5116668;28;20610;-73
2022/04/07 03:32:22;;;;;;;42.38;23.80;;;4.90;99.90;;;;;;5115133;28;20075;-72
2022/04/07 03:34:47;;;;;;;41.75;24.30;;;4.70;99.90;;;;;;5115914;28;20024;-72
2022/04/07 03:37:14;;;;;;;40.20;27.42;;;4.70;99.90;;;;;;5116054;28;20062;-71
2022/04/07 03:39:40;;;;;;;39.55;24.00;;;4.60;99.90;;;;;;5116549;28;20471;-70
2022/04/07 03:42:06;;;;;;;57.92;42.65;;;4.60;99.90;;;;;;5116450;28;20051;-73
2022/04/07 03:44:31;;;;;;;51.33;26.08;;;4.50;99.90;;;;;;5116357;28;20477;-73
2022/04/07 03:46:58;;;;;;;37.58;21.58;;;4.40;99.90;;;;;;5116177;28;20096;-72
2022/04/07 03:49:23;;;;;;;31.75;20.05;;;4.40;99.90;;;;;;5116080;28;20044;-71
2022/04/07 03:51:49;;;;;;;40.58;21.33;;;4.50;99.90;;;;;;5116260;28;20028;-73
2022/04/07 03:54:17;;;;;;;47.85;27.23;;;4.40;99.90;;;;;;5116197;28;20027;-71
2022/04/07 03:56:42;;;;;;;46.30;26.95;;;4.40;99.90;;;;;;5116179;27;20488;-70
2022/04/07 03:59:08;;;;;;;38.90;22.77;;;4.40;99.90;;;;;;5116123;28;20020;-70
2022/04/07 04:01:35;;;;;;;42.03;25.48;;;4.40;99.90;;;;;;5114685;28;20029;-69
2022/04/07 04:04:01;;;;;;;56.72;36.50;;;4.40;99.90;;;;;;5114784;28;20079;-73
2022/04/07 04:06:27;;;;;;;48.20;27.90;;;4.40;99.90;;;;;;5116018;28;20027;-70
2022/04/07 04:08:52;;;;;;;48.22;27.17;;;4.40;99.90;;;;;;5115865;28;20042;-73
2022/04/07 04:11:18;;;;;;;48.63;25.15;;;4.40;99.90;;;;;;5115919;28;20028;-71
2022/04/07 04:13:45;;;;;;;41.65;23.17;;;4.40;99.90;;;;;;5115900;28;20369;-73
2022/04/07 04:16:11;;;;;;;45.75;25.85;;;4.40;99.90;;;;;;5115823;28;20129;-72
2022/04/07 04:18:36;;;;;;;38.47;23.13;;;4.40;99.90;;;;;;5115779;27;20012;-71
2022/04/07 04:21:02;;;;;;;37.78;22.65;;;4.40;99.90;;;;;;5114359;28;20023;-73
2022/04/07 04:23:28;;;;;;;38.38;23.17;;;4.40;99.90;;;;;;5115739;28;20019;-71
2022/04/07 04:25:53;;;;;;;51.30;28.85;;;4.40;99.90;;;;;;5114239;28;20031;-70
2022/04/07 04:28:19;;;;;;;55.53;31.45;;;4.30;99.90;;;;;;5115645;28;20076;-73
2022/04/07 04:30:45;;;;;;;45.85;28.95;;;4.30;99.90;;;;;;5115570;28;20035;-72
2022/04/07 04:33:10;;;;;;;64.07;42.03;;;4.30;99.90;;;;;;5115391;28;20148;-70
2022/04/07 04:35:36;;;;;;;64.28;44.03;;;4.30;99.90;;;;;;5115524;28;20393;-72
2022/04/07 04:38:01;;;;;;;51.38;31.85;;;4.40;99.90;;;;;;5115372;28;20130;-75
2022/04/07 04:40:27;;;;;;;48.63;29.77;;;4.40;99.90;;;;;;5115306;28;20026;-71
2022/04/07 04:42:53;;;;;;;42.45;25.83;;;4.50;99.90;;;;;;5106872;28;20073;-73
2022/04/07 04:45:18;;;;;;;43.33;27.73;;;4.50;99.90;;;;;;5093398;28;20066;-74
2022/04/07 04:47:45;;;;;;;43.35;28.67;;;4.60;99.90;;;;;;5093832;28;20431;-73
2022/04/07 04:50:13;;;;;;;42.97;26.63;;;4.60;99.90;;;;;;5107174;28;20088;-73
2022/04/07 04:52:38;;;;;;;46.67;28.23;;;4.70;99.90;;;;;;5112563;28;20378;-71
2022/04/07 04:55:04;;;;;;;87.35;46.28;;;4.70;99.90;;;;;;5112183;28;20084;-73
2022/04/07 04:57:30;;;;;;;60.85;32.92;;;4.70;99.90;;;;;;5113781;28;20481;-71
2022/04/07 04:59:56;;;;;;;48.35;29.65;;;4.80;99.90;;;;;;5113046;28;20051;-74
2022/04/07 05:02:21;;;;;;;37.90;24.52;;;4.80;99.90;;;;;;5112347;28;20487;-73
2022/04/07 05:04:47;;;;;;;57.58;32.88;;;4.90;99.90;;;;;;5113769;28;20016;-74
2022/04/07 05:07:12;;;;;;;73.10;39.97;;;4.90;99.90;;;;;;5112117;28;20035;-73
2022/04/07 05:09:38;;;;;;;47.38;28.55;;;5.00;99.90;;;;;;5112535;28;20061;-73
2022/04/07 05:12:05;;;;;;;51.22;29.42;;;5.10;99.90;;;;;;5113295;27;20027;-74
2022/04/07 05:14:30;;;;;;;56.50;31.13;;;5.10;99.90;;;;;;5113109;28;20026;-70
2022/04/07 05:16:56;;;;;;;64.40;34.78;;;5.20;99.90;;;;;;5112907;27;20028;-74
2022/04/07 05:19:21;;;;;;;56.67;32.83;;;5.30;99.90;;;;;;5113722;28;20035;-71
2022/04/07 05:21:49;;;;;;;51.22;26.10;;;5.30;99.90;;;;;;5113546;27;20039;-73
2022/04/07 05:24:17;;;;;;;61.58;34.70;;;5.40;99.90;;;;;;5113823;28;20023;-74
2022/04/07 05:26:44;;;;;;;56.65;33.80;;;5.50;99.90;;;;;;5111796;28;20096;-74
2022/04/07 05:29:10;;;;;;;50.40;30.27;;;5.70;99.90;;;;;;5112714;28;20115;-74
2022/04/07 05:31:35;;;;;;;51.53;32.30;;;5.90;99.90;;;;;;5111350;28;20130;-70
2022/04/07 05:34:01;;;;;;;45.47;28.67;;;6.00;99.90;;;;;;5113164;28;20065;-70
2022/04/07 05:36:27;;;;;;;48.25;27.02;;;6.10;99.90;;;;;;5112835;27;20046;-71
2022/04/07 05:38:53;;;;;;;44.60;28.23;;;6.10;99.90;;;;;;5113029;28;20016;-73
2022/04/07 05:41:18;;;;;;;42.83;27.90;;;6.20;99.90;;;;;;5112160;27;20028;-74
2022/04/07 05:43:44;;;;;;;46.13;27.27;;;6.20;99.90;;;;;;5113425;28;20038;-71
2022/04/07 05:46:09;;;;;;;43.92;26.27;;;6.30;99.90;;;;;;5112094;27;20094;-72
2022/04/07 05:48:35;;;;;;;43.58;28.63;;;6.30;99.90;;;;;;5111753;28;20029;-73
2022/04/07 05:51:01;;;;;;;43.83;27.38;;;6.50;99.90;;;;;;5111495;28;20030;-71
2022/04/07 05:53:26;;;;;;;46.65;26.27;;;6.60;99.90;;;;;;5112855;27;20085;-70
2022/04/07 05:55:52;;;;;;;41.45;25.88;;;6.60;99.90;;;;;;5112588;28;20439;-74
2022/04/07 05:58:17;;;;;;;42.22;25.48;;;6.70;99.90;;;;;;5114068;27;20489;-71
2022/04/07 06:00:43;;;;;;;41.60;21.83;;;6.80;99.90;;;;;;5134053;27;20436;-72
2022/04/07 06:03:08;;;;;;;39.33;23.98;;;6.80;99.90;;;;;;5134427;27;20110;-71
2022/04/07 06:05:35;;;;;;;34.67;19.48;;;6.90;99.90;;;;;;5133077;27;20023;-73
2022/04/07 06:08:01;;;;;;;33.90;20.92;;;6.90;99.90;;;;;;5130860;27;20160;-71
2022/04/07 06:10:28;;;;;;;29.10;18.17;;;7.00;99.90;;;;;;5110566;28;20549;-71
2022/04/07 06:12:53;;;;;;;26.05;15.85;;;7.20;99.90;;;;;;5111492;28;20026;-73
2022/04/07 06:15:19;;;;;;;22.67;14.68;;;7.40;99.90;;;;;;5112192;28;20028;-71
2022/04/07 06:17:44;;;;;;;22.73;15.00;;;7.60;99.90;;;;;;5113583;28;20426;-71
2022/04/07 06:20:11;;;;;;;20.35;12.95;;;7.90;99.90;;;;;;5113550;28;20030;-74
2022/04/07 06:22:38;;;;;;;18.88;12.23;;;8.10;99.90;;;;;;5112954;28;20110;-71
2022/04/07 06:25:04;;;;;;;20.23;12.45;;;8.40;99.90;;;;;;5113434;28;20492;-71
2022/04/07 06:27:37;;;;;;;19.85;11.73;;;8.60;99.90;;;;;;5111780;28;20027;-71
2022/04/07 06:30:04;;;;;;;21.48;14.70;;;8.80;99.90;;;;;;5111601;28;20164;-74
2022/04/07 06:32:30;;;;;;;17.38;11.25;;;9.10;99.90;;;;;;5110722;28;20126;-74
2022/04/07 06:34:56;;;;;;;14.77;11.05;;;9.30;99.90;;;;;;5111529;28;20104;-74
2022/04/07 06:37:21;;;;;;;16.75;11.05;;;9.60;99.90;;;;;;5112176;28;20027;-73
2022/04/07 06:39:47;;;;;;;17.85;11.02;;;9.80;99.90;;;;;;5113418;28;20073;-73
2022/04/07 06:42:13;;;;;;;17.02;10.75;;;9.90;99.90;;;;;;5113623;28;20046;-73
2022/04/07 06:44:38;;;;;;;14.68;11.15;;;10.00;99.90;;;;;;5111936;28;20445;-75
2022/04/07 06:47:04;;;;;;;15.07;10.30;;;10.10;99.90;;;;;;5111257;28;20015;-74
2022/04/07 06:49:29;;;;;;;13.63;9.60;;;10.20;99.90;;;;;;5109482;28;20039;-73
2022/04/07 06:51:55;;;;;;;18.10;10.20;;;10.30;99.90;;;;;;5110613;28;20384;-73
2022/04/07 06:54:21;;;;;;;14.57;9.63;;;10.30;99.90;;;;;;5109639;28;20039;-75
2022/04/07 06:56:46;;;;;;;13.63;8.77;;;10.40;99.90;;;;;;5111453;28;20046;-75
2022/04/07 06:59:13;;;;;;;11.73;8.38;;;10.50;99.90;;;;;;5111296;28;20031;-73
2022/04/07 07:01:38;;;;;;;12.45;9.07;;;10.50;99.10;;;;;;5110329;28;20024;-75
2022/04/07 07:04:04;;;;;;;12.13;8.00;;;10.70;99.30;;;;;;5110276;28;20046;-73
2022/04/07 07:06:30;;;;;;;8.98;7.43;;;10.80;97.70;;;;;;5110875;28;20028;-74
2022/04/07 07:08:55;;;;;;;13.30;7.07;;;11.00;96.20;;;;;;5109795;28;20081;-75
2022/04/07 07:11:21;;;;;;;9.27;6.07;;;11.20;91.70;;;;;;5112958;28;20024;-73
2022/04/07 07:13:46;;;;;;;8.75;5.57;;;11.40;89.90;;;;;;5116300;28;20023;-75
2022/04/07 07:16:12;;;;;;;9.27;6.07;;;11.60;87.20;;;;;;5115518;28;20027;-74
2022/04/07 07:18:38;;;;;;;8.60;5.70;;;11.80;85.40;;;;;;5116656;28;20027;-74
2022/04/07 07:21:04;;;;;;;8.10;4.63;;;12.00;85.60;;;;;;5116805;28;20107;-74
2022/04/07 07:23:32;;;;;;;7.32;5.20;;;12.20;79.80;;;;;;5115458;28;20071;-73
2022/04/07 07:25:58;;;;;;;7.75;5.13;;;12.50;79.90;;;;;;5116720;28;20015;-75
2022/04/07 07:28:23;;;;;;;6.07;4.05;;;12.60;75.70;;;;;;5116616;28;20362;-76
2022/04/07 07:30:49;;;;;;;6.25;3.92;;;12.70;74.60;;;;;;5116400;28;20453;-73
2022/04/07 07:33:14;;;;;;;7.32;4.40;;;12.80;73.30;;;;;;5115366;28;20497;-74
2022/04/07 07:35:43;;;;;;;14.40;13.25;;;12.90;73.70;;;;;;5115309;28;20024;-75
2022/04/07 07:38:08;;;;;;;6.22;3.47;;;13.00;72.30;;;;;;5116391;28;20024;-75
2022/04/07 07:40:34;;;;;;;8.10;4.13;;;13.10;71.60;;;;;;5115142;28;20024;-74
2022/04/07 07:43:01;;;;;;;9.48;4.55;;;13.20;70.90;;;;;;5116354;28;20107;-73
2022/04/07 07:45:34;;;;;;;9.40;5.57;;;13.20;68.40;;;;;;5115100;28;20016;-75
2022/04/07 07:48:00;;;;;;;5.50;4.63;;;13.30;68.60;;;;;;5116600;28;20080;-74
2022/04/07 07:50:26;;;;;;;6.35;4.47;;;13.40;69.20;;;;;;5116110;28;20035;-74
2022/04/07 07:52:52;;;;;;;10.48;5.13;;;13.50;69.30;;;;;;5116118;28;20019;-74
2022/04/07 07:55:18;;;;;;;7.57;5.70;;;13.40;68.00;;;;;;5116167;28;20131;-75
2022/04/07 07:57:44;;;;;;;11.55;4.20;;;13.50;67.50;;;;;;5116154;28;20031;-75
2022/04/07 08:00:12;;;;;;;7.85;5.85;;;13.60;67.20;;;;;;5115110;28;20047;-74
2022/04/07 08:02:38;;;;;;;7.43;4.60;;;13.80;67.90;;;;;;5114957;28;20027;-75
2022/04/07 08:05:06;;;;;;;8.05;3.92;;;13.80;66.10;;;;;;5114803;28;20442;-75
2022/04/07 08:07:32;;;;;;;6.22;3.90;;;13.80;64.50;;;;;;5115970;28;20076;-74
2022/04/07 08:09:58;;;;;;;5.05;3.72;;;13.90;65.30;;;;;;5114995;28;20434;-72
2022/04/07 08:12:24;;;;;;;6.95;3.63;;;13.90;66.00;;;;;;5115739;28;20024;-71
2022/04/07 08:14:50;;;;;;;7.60;3.95;;;14.00;64.70;;;;;;5115791;28;20039;-72
2022/04/07 08:17:16;;;;;;;5.05;3.63;;;14.00;62.90;;;;;;5115800;28;20408;-72
2022/04/07 08:19:41;;;;;;;6.40;3.40;;;14.00;62.70;;;;;;5115929;28;20019;-72
2022/04/07 08:22:07;;;;;;;5.18;3.55;;;14.00;63.20;;;;;;5115743;28;20362;-71
2022/04/07 08:24:34;;;;;;;4.97;3.40;;;14.10;62.20;;;;;;5114372;28;20106;-72
2022/04/07 08:27:00;;;;;;;4.70;3.13;;;14.10;60.70;;;;;;5115677;28;20445;-73
2022/04/07 08:29:26;;;;;;;5.38;3.60;;;14.10;59.70;;;;;;5115604;28;20039;-73
2022/04/07 08:31:52;;;;;;;6.13;2.40;;;14.30;59.90;;;;;;5113944;28;20039;-74
2022/04/07 08:34:19;;;;;;;4.80;2.63;;;14.30;59.20;;;;;;5115220;28;20400;-71
2022/04/07 08:36:45;;;;;;;3.08;2.17;;;14.40;58.60;;;;;;5113894;28;20016;-72
2022/04/07 08:39:10;;;;;;;4.30;1.92;;;14.40;57.50;;;;;;5114250;28;20065;-72
2022/04/07 08:41:39;;;;;;;3.42;2.80;;;14.50;57.70;;;;;;5113980;28;20111;-73
2022/04/07 08:44:04;;;;;;;7.40;3.35;;;14.60;57.60;;;;;;5114108;28;20449;-71
2022/04/07 08:46:32;;;;;;;2.80;2.25;;;14.90;58.10;;;;;;5115301;28;20051;-72
2022/04/07 08:49:03;;;;;;;3.22;2.17;;;15.10;58.10;;;;;;5115166;28;20031;-75
2022/04/07 08:51:29;;;;;;;2.30;1.70;;;15.20;58.10;;;;;;5115254;28;20023;-76
2022/04/07 08:53:55;;;;;;;4.20;2.08;;;15.20;56.40;;;;;;5113929;28;20031;-76
2022/04/07 08:56:23;;;;;;;5.78;2.38;;;15.30;56.80;;;;;;5113812;28;20385;-76
2022/04/07 08:58:49;;;;;;;4.07;2.35;;;15.50;56.40;;;;;;5113777;28;20012;-74
2022/04/07 09:01:14;;;;;;;3.70;2.30;;;15.40;55.80;;;;;;5113756;28;20035;-73
2022/04/07 09:03:40;;;;;;;4.43;1.88;;;15.10;55.60;;;;;;5115035;28;20030;-75
2022/04/07 09:06:05;;;;;;;1.83;1.73;;;15.10;56.40;;;;;;5114850;28;20475;-75
2022/04/07 09:08:35;;;;;;;2.53;1.50;;;14.90;56.70;;;;;;5114980;28;20084;-75
2022/04/07 09:11:03;;;;;;;2.05;1.70;;;14.60;55.80;;;;;;5112768;28;20035;-75
2022/04/07 09:13:34;;;;;;;2.58;1.58;;;14.40;56.10;;;;;;5115009;28;20015;-74
2022/04/07 09:16:03;;;;;;;2.15;1.90;;;14.30;57.10;;;;;;5113507;28;20019;-75
2022/04/07 09:18:32;;;;;;;4.95;1.90;;;14.60;58.00;;;;;;5113601;28;20019;-75
2022/04/07 09:20:57;;;;;;;3.38;1.83;;;14.60;57.20;;;;;;5113551;28;20069;-73
2022/04/07 09:23:23;;;;;;;2.40;2.20;;;14.50;57.20;;;;;;5114826;28;20024;-76
2022/04/07 09:25:49;;;;;;;3.40;2.10;;;14.60;57.40;;;;;;5114654;28;20072;-75
2022/04/07 09:28:25;;;;;;;2.67;1.60;;;14.70;58.70;;;;;;5114571;28;20031;-75
2022/04/07 09:30:51;;;;;;;3.08;1.85;;;14.70;58.10;;;;;;5113255;28;20393;-74
2022/04/07 09:33:23;;;;;;;2.70;1.60;;;15.00;58.50;;;;;;5114624;28;20075;-74
2022/04/07 09:36:03;;;;;;;2.38;1.73;;;15.40;58.80;;;;;;5112777;28;20481;-74
2022/04/07 09:38:32;;;;;;;2.05;1.40;;;15.80;57.90;;;;;;5114650;28;20082;-76
2022/04/07 09:41:05;;;;;;;2.67;1.30;;;16.00;56.00;;;;;;5114392;28;20030;-75
2022/04/07 09:43:44;;;;;;;4.40;1.40;;;16.20;56.60;;;;;;5113114;28;20082;-75
2022/04/07 09:46:11;;;;;;;1.85;1.30;;;16.30;54.80;;;;;;5114109;28;20065;-74
2022/04/07 09:48:38;;;;;;;3.38;1.15;;;16.20;54.10;;;;;;5114326;28;20019;-76
2022/04/07 09:51:05;;;;;;;7.13;2.20;;;16.10;55.00;;;;;;5112995;28;20035;-74
2022/04/07 09:53:36;;;;;;;2.80;1.75;;;16.10;55.00;;;;;;5114274;28;20110;-76
2022/04/07 09:56:03;;;;;;;1.05;0.90;;;16.40;56.40;;;;;;5114245;28;20080;-76
2022/04/07 09:58:29;;;;;;;2.40;0.98;;;16.10;55.80;;;;;;5112948;28;20426;-73
2022/04/07 10:00:56;;;;;;;1.20;1.13;;;15.90;54.60;;;;;;5114194;28;20024;-75
2022/04/07 10:03:22;;;;;;;1.80;1.67;;;15.90;54.60;;;;;;5112859;28;20021;-75
2022/04/07 10:05:48;;;;;;;2.05;1.10;;;16.20;56.50;;;;;;5113981;28;20023;-76
2022/04/07 10:08:16;;;;;;;0.85;0.75;;;16.20;55.00;;;;;;5112848;28;20024;-74
2022/04/07 10:10:42;;;;;;;1.95;1.10;;;16.20;54.60;;;;;;5114153;28;20035;-76
2022/04/07 10:13:09;;;;;;;2.63;1.00;;;15.90;54.50;;;;;;5112708;28;20108;-74
2022/04/07 10:15:38;;;;;;;5.32;1.23;;;15.90;55.60;;;;;;5113983;28;20112;-74
2022/04/07 10:18:11;;;;;;;5.97;1.00;;;16.10;55.60;;;;;;5113974;28;20484;-74
2022/04/07 10:20:45;;;;;;;5.40;1.42;;;16.30;55.30;;;;;;5112816;28;20023;-76
2022/04/07 10:23:26;;;;;;;2.53;1.10;;;16.40;54.90;;;;;;5112944;28;20377;-76
2022/04/07 10:25:54;;;;;;;1.20;1.10;;;16.50;54.90;;;;;;5112691;28;20024;-73
2022/04/07 10:28:20;;;;;;;2.10;1.20;;;16.60;54.40;;;;;;5112559;28;20023;-76
2022/04/07 10:30:51;;;;;;;3.55;1.20;;;16.40;53.60;;;;;;5113874;28;20043;-76
2022/04/07 10:33:41;;;;;;;1.42;1.20;;;16.50;54.10;;;;;;5113947;28;20048;-73
2022/04/07 10:36:17;;;;;;;2.60;0.90;;;16.80;54.30;;;;;;5113778;28;20370;-74
2022/04/07 10:38:47;;;;;;;1.20;1.10;;;17.00;53.80;;;;;;5112550;28;20016;-76
2022/04/07 10:41:35;;;;;;;2.97;1.63;;;17.20;54.30;;;;;;5113855;28;20043;-75
2022/04/07 10:44:23;;;;;;;2.20;1.00;;;17.00;51.90;;;;;;5112448;28;20023;-74
2022/04/07 10:46:48;;;;;;;1.77;0.80;;;17.20;53.10;;;;;;5113793;28;20476;-74
2022/04/07 10:49:24;;;;;;;0.75;0.75;;;17.50;52.90;;;;;;5117672;28;20063;-76
2022/04/07 10:51:57;;;;;;;2.35;1.17;;;17.30;51.60;;;;;;5117710;28;20027;-74
2022/04/07 10:54:25;;;;;;;1.95;0.98;;;17.30;52.10;;;;;;5117370;28;20072;-76
2022/04/07 10:56:59;;;;;;;1.05;0.68;;;17.40;52.30;;;;;;5117590;28;20027;-76
2022/04/07 10:59:31;;;;;;;0.52;0.52;;;17.20;51.50;;;;;;5116570;28;20027;-74
2022/04/07 11:02:03;;;;;;;0.73;0.65;;;17.20;52.00;;;;;;5117495;28;20112;-76
2022/04/07 11:04:30;;;;;;;2.28;1.13;;;17.30;52.00;;;;;;5116184;28;20434;-76
2022/04/07 11:07:05;;;;;;;2.15;1.17;;;17.50;52.40;;;;;;5116065;28;20453;-76
2022/04/07 11:09:47;;;;;;;2.45;1.02;;;17.70;52.20;;;;;;5116021;28;20032;-76
2022/04/07 11:12:19;;;;;;;2.53;0.70;;;17.50;50.90;;;;;;5116252;28;20118;-76
2022/04/07 11:14:46;;;;;;;1.67;1.20;;;17.70;51.50;;;;;;5117407;28;20065;-75
2022/04/07 11:17:51;;;;;;;1.00;0.55;;;17.80;51.60;;;;;;5117109;28;20065;-77
2022/04/07 11:20:18;;;;;;;1.92;0.70;;;17.60;49.70;;;;;;5116027;28;20027;-74
2022/04/07 11:22:55;;;;;;;3.20;1.00;;;17.60;49.80;;;;;;5117076;28;20026;-76
2022/04/07 11:25:32;;;;;;;2.78;1.00;;;17.30;50.40;;;;;;5117261;28;20409;-74
2022/04/07 11:28:11;;;;;;;1.40;1.13;;;17.40;50.40;;;;;;5116923;28;20453;-74
2022/04/07 11:30:41;;;;;;;0.80;0.80;;;16.90;50.60;;;;;;5115560;28;20184;-76
2022/04/07 11:33:28;;;;;;;1.58;1.10;;;16.80;51.50;;;;;;5115589;28;20043;-76
2022/04/07 11:35:59;;;;;;;1.58;1.10;;;16.60;52.00;;;;;;5117233;28;20023;-73
2022/04/07 11:38:47;;;;;;;4.57;1.20;;;16.60;52.50;;;;;;5116833;28;20047;-75
2022/04/07 11:41:18;;;;;;;6.85;1.55;;;16.60;52.30;;;;;;5115572;28;20015;-73
2022/04/07 11:43:46;;;;;;;1.20;1.00;;;16.50;52.70;;;;;;5115197;28;20015;-76
2022/04/07 11:46:24;;;;;;;2.15;1.52;;;16.30;53.10;;;;;;5115180;28;20023;-74
2022/04/07 11:48:50;;;;;;;3.30;1.15;;;16.30;53.20;;;;;;5116586;28;20019;-73
2022/04/07 11:51:19;;;;;;;2.20;1.10;;;16.30;53.50;;;;;;5115256;28;20515;-75
2022/04/07 11:53:52;;;;;;;6.68;1.63;;;16.40;53.50;;;;;;5116619;28;20476;-76
2022/04/07 11:56:20;;;;;;;2.20;1.17;;;16.60;53.70;;;;;;5116750;28;20023;-76
2022/04/07 11:58:53;;;;;;;0.75;0.70;;;16.60;53.60;;;;;;5115934;28;20068;-74
2022/04/07 12:01:18;;;;;;;6.65;4.78;;;16.50;53.90;;;;;;5116483;28;20027;-75
2022/04/07 12:03:44;;;;;;;20.95;18.15;;;16.70;54.60;;;;;;5116310;28;20028;-75
2022/04/07 12:06:09;;;;;;;45.90;41.30;;;16.60;54.30;;;;;;5114913;28;20042;-73
2022/04/07 12:08:35;;;;;;;26.95;24.23;;;16.30;53.30;;;;;;5116307;28;20023;-74
2022/04/07 12:11:03;;;;;;;8.30;4.15;;;16.20;54.00;;;;;;5114753;28;20059;-75
2022/04/07 12:13:29;;;;;;;2.25;2.05;;;16.10;54.40;;;;;;5114840;28;20481;-74
2022/04/07 12:15:54;;;;;;;5.13;4.63;;;16.10;54.10;;;;;;5114720;28;20023;-74
2022/04/07 12:18:27;;;;;;;5.38;3.95;;;16.20;54.70;;;;;;5115979;28;20384;-76
2022/04/07 12:20:59;;;;;;;;;;;16.30;54.20;;;;;;5115030;28;20015;-75
2022/04/07 12:23:27;;;;;;;3.05;1.70;;;16.40;53.80;;;;;;5115931;28;19907;-75
2022/04/07 12:25:59;;;;;;;8.85;3.03;;;16.40;54.20;;;;;;5114563;28;20046;-76
2022/04/07 12:28:38;;;;;;;6.43;2.57;;;16.40;54.00;;;;;;5115969;28;20035;-73
2022/04/07 12:31:24;;;;;;;5.32;2.50;;;16.30;54.60;;;;;;5114589;28;20274;-76
2022/04/07 12:33:50;;;;;;;5.03;2.65;;;16.60;55.00;;;;;;5115447;28;20055;-75
2022/04/07 12:36:37;;;;;;;2.63;1.77;;;16.90;52.90;;;;;;5114306;28;20080;-76
2022/04/07 12:39:06;;;;;;;2.97;1.60;;;17.20;52.90;;;;;;5115759;28;20031;-76
2022/04/07 12:41:50;;;;;;;3.67;1.92;;;17.00;52.10;;;;;;5114339;28;20022;-74
2022/04/07 12:44:26;;;;;;;2.33;1.63;;;17.10;51.70;;;;;;5115785;28;20373;-76